createdAt,value
2023-01-17T00:00:02.553Z,5.13
2023-01-17T00:02:29.650Z,5.01
2023-01-17T00:04:57.127Z,4.82
2023-01-17T00:07:25.569Z,4.93
2023-01-17T00:09:52.797Z,4.78
2023-01-17T00:12:20.874Z,4.76
2023-01-17T00:14:48.489Z,4.88
2023-01-17T00:17:15.892Z,5.09
2023-01-17T00:19:42.974Z,4.92
2023-01-17T00:22:22.338Z,4.75
2023-01-17T00:24:49.420Z,4.78
2023-01-17T00:27:19.941Z,4.95
2023-01-17T00:29:53.258Z,4.88
2023-01-17T00:32:21.157Z,4.79
2023-01-17T00:34:51.361Z,4.78
2023-01-17T00:37:21.634Z,4.69
2023-01-17T00:39:51.757Z,4.80
2023-01-17T00:42:18.872Z,4.83
2023-01-17T00:44:45.957Z,4.81
2023-01-17T00:47:13.216Z,4.76
2023-01-17T00:49:40.398Z,4.93
2023-01-17T00:52:18.154Z,5.00
2023-01-17T00:54:47.408Z,4.83
2023-01-17T00:57:18.590Z,4.90
2023-01-17T00:59:46.051Z,4.80
2023-01-17T01:02:14.042Z,4.71
2023-01-17T01:04:41.182Z,4.67
2023-01-17T01:07:08.272Z,4.65
2023-01-17T01:09:35.411Z,4.59
2023-01-17T01:12:02.511Z,4.69
2023-01-17T01:14:29.682Z,4.58
2023-01-17T01:16:57.149Z,4.62
2023-01-17T01:19:38.760Z,4.74
2023-01-17T01:22:05.916Z,4.71
2023-01-17T01:24:33.147Z,4.51
2023-01-17T01:27:00.278Z,4.79
2023-01-17T01:29:27.440Z,4.91
2023-01-17T01:31:54.497Z,4.73
2023-01-17T01:34:24.970Z,4.72
2023-01-17T01:36:53.422Z,4.72
2023-01-17T01:39:20.506Z,4.89
2023-01-17T01:41:47.549Z,4.76
2023-01-17T01:44:43.990Z,4.66
2023-01-17T01:47:15.528Z,4.66
2023-01-17T01:49:49.897Z,4.84
2023-01-17T01:52:23.760Z,4.61
2023-01-17T01:54:56.225Z,4.58
2023-01-17T01:57:33.311Z,4.54
2023-01-17T02:00:15.677Z,4.73
2023-01-17T02:02:44.645Z,4.66
2023-01-17T02:05:14.317Z,4.68
2023-01-17T02:07:52.019Z,4.67
2023-01-17T02:10:20.107Z,4.60
2023-01-17T02:12:48.006Z,4.79
2023-01-17T02:15:15.294Z,4.65
2023-01-17T02:18:19.992Z,4.66
2023-01-17T02:21:02.362Z,4.68
2023-01-17T02:23:32.760Z,4.57
2023-01-17T02:26:37.328Z,4.59
2023-01-17T02:29:29.076Z,4.79
2023-01-17T02:32:09.729Z,4.69
2023-01-17T02:34:58.699Z,4.58
2023-01-17T02:37:39.792Z,4.62
2023-01-17T02:40:18.956Z,4.60
2023-01-17T02:42:52.899Z,4.52
2023-01-17T02:45:20.914Z,4.64
2023-01-17T02:47:47.977Z,4.68
2023-01-17T02:50:22.483Z,4.66
2023-01-17T02:53:03.248Z,4.49
2023-01-17T02:55:51.895Z,4.43
2023-01-17T02:58:36.716Z,4.59
2023-01-17T03:01:25.978Z,4.67
2023-01-17T03:04:12.745Z,4.74
2023-01-17T03:06:44.833Z,4.71
2023-01-17T03:09:14.428Z,4.77
2023-01-17T03:11:42.733Z,4.75
2023-01-17T03:14:10.030Z,4.68
2023-01-17T03:16:41.984Z,4.65
2023-01-17T03:19:09.201Z,4.76
2023-01-17T03:21:36.321Z,4.89
2023-01-17T03:24:03.794Z,4.94
2023-01-17T03:26:30.926Z,5.02
2023-01-17T03:29:03.701Z,5.29
2023-01-17T03:31:33.628Z,5.16
2023-01-17T03:34:03.378Z,4.87
2023-01-17T03:36:33.566Z,5.04
2023-01-17T03:39:00.633Z,4.87
2023-01-17T03:41:28.169Z,4.96
2023-01-17T03:43:55.235Z,4.91
2023-01-17T03:46:24.741Z,4.93
2023-01-17T03:48:52.298Z,4.98
2023-01-17T03:51:20.226Z,4.98
2023-01-17T03:53:47.744Z,5.01
2023-01-17T03:56:20.348Z,4.96
2023-01-17T03:58:47.493Z,5.10
2023-01-17T04:01:14.776Z,5.05
2023-01-17T04:03:41.921Z,5.01
2023-01-17T04:06:09.047Z,5.00
2023-01-17T04:08:36.394Z,5.03
2023-01-17T04:11:03.676Z,5.09
2023-01-17T04:13:32.156Z,5.12
2023-01-17T04:15:59.348Z,5.07
2023-01-17T04:18:27.713Z,5.12
2023-01-17T04:20:56.755Z,5.07
2023-01-17T04:23:27.166Z,5.10
2023-01-17T04:25:54.221Z,5.03
2023-01-17T04:28:21.355Z,5.16
2023-01-17T04:30:49.357Z,5.19
2023-01-17T04:33:16.429Z,5.19
2023-01-17T04:35:43.842Z,5.18
2023-01-17T04:38:10.926Z,5.18
2023-01-17T04:40:38.793Z,5.16
2023-01-17T04:43:05.907Z,5.17
2023-01-17T04:45:46.095Z,5.12
2023-01-17T04:48:13.846Z,5.16
2023-01-17T04:50:41.592Z,5.16
2023-01-17T04:53:09.291Z,5.17
2023-01-17T04:55:36.963Z,5.13
2023-01-17T04:58:04.776Z,4.94
2023-01-17T05:00:32.709Z,5.09
2023-01-17T05:03:00.557Z,5.15
2023-01-17T05:05:28.320Z,6.16
2023-01-17T05:07:57.453Z,7.71
2023-01-17T05:10:26.043Z,7.40
2023-01-17T05:12:58.885Z,8.17
2023-01-17T05:15:30.705Z,7.93
2023-01-17T05:18:00.485Z,8.11
2023-01-17T05:20:29.365Z,9.26
2023-01-17T05:22:59.485Z,8.88
2023-01-17T05:25:29.444Z,7.92
2023-01-17T05:28:05.852Z,6.64
2023-01-17T05:30:34.260Z,6.18
2023-01-17T05:33:02.709Z,5.98
2023-01-17T05:35:32.895Z,5.79
2023-01-17T05:38:00.047Z,5.66
2023-01-17T05:40:29.453Z,5.45
2023-01-17T05:42:58.791Z,5.46
2023-01-17T05:45:28.045Z,5.38
2023-01-17T05:47:56.491Z,5.38
2023-01-17T05:50:33.204Z,5.43
2023-01-17T05:53:03.638Z,5.45
2023-01-17T05:55:31.561Z,5.33
2023-01-17T05:57:59.195Z,5.48
2023-01-17T06:00:26.272Z,5.23
2023-01-17T06:02:54.955Z,5.25
2023-01-17T06:05:23.404Z,5.25
2023-01-17T06:07:51.566Z,5.26
2023-01-17T06:10:20.826Z,5.24
2023-01-17T06:12:48.430Z,5.15
2023-01-17T06:15:18.317Z,5.14
2023-01-17T06:17:54.569Z,5.10
2023-01-17T06:20:21.577Z,5.00
2023-01-17T06:22:48.862Z,5.19
2023-01-17T06:25:15.987Z,5.04
2023-01-17T06:27:43.093Z,5.20
2023-01-17T06:30:10.809Z,5.17
2023-01-17T06:32:37.962Z,5.30
2023-01-17T06:35:05.345Z,5.38
2023-01-17T06:37:32.405Z,6.37
2023-01-17T06:39:59.604Z,6.55
2023-01-17T06:42:26.690Z,5.80
2023-01-17T06:44:53.846Z,5.68
2023-01-17T06:47:21.059Z,5.66
2023-01-17T06:49:48.113Z,5.45
2023-01-17T06:52:28.492Z,5.53
2023-01-17T06:54:55.601Z,5.51
2023-01-17T06:57:25.638Z,5.49
2023-01-17T06:59:52.824Z,5.43
2023-01-17T07:02:19.916Z,5.60
2023-01-17T07:04:47.122Z,5.54
2023-01-17T07:07:14.192Z,5.47
2023-01-17T07:09:41.578Z,5.36
2023-01-17T07:12:08.872Z,5.30
2023-01-17T07:14:36.101Z,5.38
2023-01-17T07:17:16.913Z,5.41
2023-01-17T07:19:45.033Z,5.48
2023-01-17T07:22:12.337Z,5.46
2023-01-17T07:24:48.479Z,5.66
2023-01-17T07:27:15.590Z,5.42
2023-01-17T07:29:42.742Z,5.49
2023-01-17T07:32:10.003Z,5.34
2023-01-17T07:34:37.370Z,5.40
2023-01-17T07:37:04.759Z,5.47
2023-01-17T07:39:36.322Z,5.34
2023-01-17T07:42:07.011Z,5.38
2023-01-17T07:44:34.281Z,5.41
2023-01-17T07:47:01.601Z,5.39
2023-01-17T07:49:28.818Z,5.32
2023-01-17T07:51:56.086Z,5.46
2023-01-17T07:54:23.155Z,5.54
2023-01-17T07:56:50.227Z,5.73
2023-01-17T07:59:20.001Z,5.55
2023-01-17T08:01:47.170Z,5.66
2023-01-17T08:04:14.467Z,5.74
2023-01-17T08:06:43.696Z,5.90
2023-01-17T08:09:10.767Z,5.69
2023-01-17T08:11:42.110Z,5.76
2023-01-17T08:14:09.349Z,5.98
2023-01-17T08:16:40.147Z,6.17
2023-01-17T08:19:07.345Z,5.97
2023-01-17T08:21:34.476Z,5.98
2023-01-17T08:24:01.642Z,5.92
2023-01-17T08:26:28.906Z,6.12
2023-01-17T08:28:58.580Z,6.14
2023-01-17T08:31:27.269Z,6.07
2023-01-17T08:33:54.411Z,6.01
2023-01-17T08:36:23.021Z,6.13
2023-01-17T08:38:50.037Z,6.20
2023-01-17T08:41:17.181Z,6.35
2023-01-17T08:43:44.339Z,6.30
2023-01-17T08:46:11.547Z,6.29
2023-01-17T08:48:40.879Z,6.38
2023-01-17T08:51:13.573Z,6.30
2023-01-17T08:53:40.796Z,6.12
2023-01-17T08:56:09.258Z,6.29
2023-01-17T08:58:36.796Z,6.26
2023-01-17T09:01:05.751Z,6.36
2023-01-17T09:03:34.403Z,6.07
2023-01-17T09:06:02.718Z,6.22
2023-01-17T09:08:30.451Z,6.29
2023-01-17T09:10:57.620Z,6.30
2023-01-17T09:13:25.033Z,6.44
2023-01-17T09:15:56.676Z,6.84
2023-01-17T09:18:25.319Z,6.65
2023-01-17T09:20:54.931Z,6.99
2023-01-17T09:23:22.726Z,7.20
2023-01-17T09:25:58.244Z,7.03
2023-01-17T09:28:26.784Z,7.11
2023-01-17T09:30:54.738Z,7.22
2023-01-17T09:33:21.919Z,7.18
2023-01-17T09:35:48.986Z,7.22
2023-01-17T09:38:16.507Z,7.33
2023-01-17T09:40:47.413Z,7.23
2023-01-17T09:43:34.259Z,7.42
2023-01-17T09:46:01.839Z,7.62
2023-01-17T09:48:37.757Z,8.02
2023-01-17T09:51:13.498Z,8.15
2023-01-17T09:53:41.887Z,8.65
2023-01-17T09:56:19.772Z,8.85
2023-01-17T09:59:32.224Z,8.80
2023-01-17T10:02:26.516Z,8.99
2023-01-17T10:05:00.027Z,9.21
2023-01-17T10:07:33.411Z,9.20
2023-01-17T10:10:25.338Z,9.00
2023-01-17T10:13:07.181Z,9.32
2023-01-17T10:16:19.377Z,10.17
2023-01-17T10:19:12.668Z,9.90
2023-01-17T10:22:09.818Z,9.65
2023-01-17T10:25:07.645Z,9.51
2023-01-17T10:27:39.257Z,9.91
2023-01-17T10:30:17.561Z,9.77
2023-01-17T10:32:48.437Z,9.71
2023-01-17T10:35:30.636Z,9.69
2023-01-17T10:38:00.544Z,9.33
2023-01-17T10:40:50.114Z,8.99
2023-01-17T10:43:39.722Z,8.98
2023-01-17T10:46:15.122Z,9.02
2023-01-17T10:48:45.842Z,8.70
2023-01-17T10:51:31.602Z,9.06
2023-01-17T10:54:19.284Z,9.38
2023-01-17T10:56:47.619Z,9.69
2023-01-17T10:59:31.864Z,9.53
2023-01-17T11:02:00.135Z,11.63
2023-01-17T11:04:40.249Z,13.10
2023-01-17T11:07:10.535Z,13.52
2023-01-17T11:09:45.759Z,12.86
2023-01-17T11:12:27.674Z,13.18
2023-01-17T11:15:10.503Z,12.53
2023-01-17T11:17:46.159Z,12.85
2023-01-17T11:20:28.142Z,11.49
2023-01-17T11:23:31.476Z,10.52
2023-01-17T11:26:01.601Z,10.41
2023-01-17T11:28:32.064Z,9.80
2023-01-17T11:31:02.072Z,9.63
2023-01-17T11:33:40.628Z,9.43
2023-01-17T11:36:28.312Z,9.77
2023-01-17T11:39:17.705Z,9.69
2023-01-17T11:41:46.580Z,11.30
2023-01-17T11:44:25.859Z,13.00
2023-01-17T11:47:11.558Z,14.18
2023-01-17T11:49:46.665Z,14.57
2023-01-17T11:52:25.034Z,15.32
2023-01-17T11:54:55.236Z,12.84
2023-01-17T11:57:33.329Z,12.17
2023-01-17T12:00:19.507Z,11.60
2023-01-17T12:03:09.925Z,10.94
2023-01-17T12:05:40.356Z,11.01
2023-01-17T12:08:28.763Z,10.75
2023-01-17T12:11:08.260Z,10.37
2023-01-17T12:13:46.901Z,10.44
2023-01-17T12:16:31.111Z,10.62
2023-01-17T12:19:05.901Z,10.82
2023-01-17T12:22:11.320Z,10.72
2023-01-17T12:24:41.925Z,10.61
2023-01-17T12:27:45.541Z,10.82
2023-01-17T12:30:24.749Z,10.44
2023-01-17T12:33:22.860Z,10.39
2023-01-17T12:36:02.283Z,10.06
2023-01-17T12:38:36.907Z,9.74
2023-01-17T12:41:09.938Z,9.60
2023-01-17T12:43:41.082Z,9.76
2023-01-17T12:46:21.409Z,9.90
2023-01-17T12:48:54.226Z,9.96
2023-01-17T12:51:25.073Z,9.91
2023-01-17T12:54:14.164Z,9.89
2023-01-17T12:56:49.016Z,9.90
2023-01-17T12:59:32.711Z,9.95
2023-01-17T13:02:03.931Z,9.98
2023-01-17T13:04:58.425Z,10.00
2023-01-17T13:07:32.061Z,10.00
2023-01-17T13:10:11.697Z,9.92
2023-01-17T13:12:39.595Z,9.92
2023-01-17T13:15:19.264Z,9.87
2023-01-17T13:17:51.305Z,9.84
2023-01-17T13:20:42.824Z,9.84
2023-01-17T13:23:41.108Z,9.77
2023-01-17T13:26:26.436Z,9.74
2023-01-17T13:29:16.616Z,9.67
2023-01-17T13:32:02.775Z,9.67
2023-01-17T13:34:48.657Z,9.74
2023-01-17T13:37:33.891Z,9.75
2023-01-17T13:40:29.440Z,9.68
2023-01-17T13:43:14.878Z,9.52
2023-01-17T13:45:51.834Z,9.55
2023-01-17T13:48:19.036Z,9.62
2023-01-17T13:50:55.969Z,9.54
2023-01-17T13:53:29.000Z,9.53
2023-01-17T13:56:13.442Z,9.53
2023-01-17T13:58:46.735Z,9.50
2023-01-17T14:01:14.935Z,9.42
2023-01-17T14:03:50.282Z,9.24
2023-01-17T14:06:38.028Z,9.46
2023-01-17T14:09:42.124Z,9.29
2023-01-17T14:12:09.208Z,9.28
2023-01-17T14:14:36.370Z,9.29
2023-01-17T14:17:36.800Z,9.24
2023-01-17T14:20:10.127Z,9.04
2023-01-17T14:22:41.538Z,8.90
2023-01-17T14:25:11.819Z,8.84
2023-01-17T14:27:41.908Z,9.02
2023-01-17T14:30:38.040Z,8.83
2023-01-17T14:33:33.074Z,8.85
2023-01-17T14:36:06.317Z,8.71
2023-01-17T14:38:34.577Z,8.70
2023-01-17T14:41:06.434Z,8.50
2023-01-17T14:43:37.673Z,8.81
2023-01-17T14:46:14.288Z,8.77
2023-01-17T14:48:41.657Z,8.48
2023-01-17T14:51:23.229Z,8.38
2023-01-17T14:54:00.285Z,8.36
2023-01-17T14:56:29.204Z,8.32
2023-01-17T14:59:19.080Z,8.17
2023-01-17T15:02:06.697Z,8.26
2023-01-17T15:04:34.846Z,8.10
2023-01-17T15:07:02.374Z,8.30
2023-01-17T15:09:35.278Z,8.17
2023-01-17T15:12:03.102Z,8.14
2023-01-17T15:14:36.229Z,7.94
2023-01-17T15:17:16.644Z,8.07
2023-01-17T15:19:45.471Z,8.21
2023-01-17T15:22:13.024Z,8.11
2023-01-17T15:24:43.582Z,8.15
2023-01-17T15:27:15.304Z,8.15
2023-01-17T15:29:45.552Z,8.08
2023-01-17T15:32:24.669Z,8.21
2023-01-17T15:34:52.409Z,8.12
2023-01-17T15:37:24.386Z,8.76
2023-01-17T15:39:52.171Z,8.21
2023-01-17T15:42:30.911Z,8.02
2023-01-17T15:45:05.158Z,7.99
2023-01-17T15:47:37.154Z,8.15
2023-01-17T15:50:27.514Z,8.01
2023-01-17T15:53:05.168Z,7.97
2023-01-17T15:55:39.543Z,8.04
2023-01-17T15:58:25.000Z,8.04
2023-01-17T16:00:52.386Z,8.07
2023-01-17T16:03:19.576Z,7.98
2023-01-17T16:05:47.469Z,8.13
2023-01-17T16:08:26.154Z,8.07
2023-01-17T16:10:55.665Z,8.03
2023-01-17T16:13:22.761Z,7.90
2023-01-17T16:15:49.906Z,8.02
2023-01-17T16:18:23.062Z,8.00
2023-01-17T16:20:57.257Z,8.00
2023-01-17T16:23:24.520Z,8.04
2023-01-17T16:25:51.655Z,8.03
2023-01-17T16:28:19.096Z,8.20
2023-01-17T16:30:46.674Z,8.68
2023-01-17T16:33:13.878Z,8.56
2023-01-17T16:35:41.348Z,8.33
2023-01-17T16:38:12.488Z,8.40
2023-01-17T16:40:43.099Z,8.14
2023-01-17T16:43:11.466Z,8.13
2023-01-17T16:45:47.417Z,8.18
2023-01-17T16:48:16.349Z,8.24
2023-01-17T16:50:47.914Z,7.98
2023-01-17T16:53:15.969Z,8.02
2023-01-17T16:55:44.324Z,7.96
2023-01-17T16:58:11.635Z,8.04
2023-01-17T17:00:42.299Z,8.11
2023-01-17T17:03:18.762Z,8.09
2023-01-17T17:05:55.223Z,8.13
2023-01-17T17:08:22.386Z,8.26
2023-01-17T17:10:53.000Z,8.09
2023-01-17T17:13:20.111Z,8.05
2023-01-17T17:15:47.484Z,8.17
2023-01-17T17:18:16.691Z,8.24
2023-01-17T17:20:44.933Z,8.19
2023-01-17T17:23:12.648Z,8.26
2023-01-17T17:25:41.234Z,8.09
2023-01-17T17:28:10.486Z,8.19
2023-01-17T17:30:37.697Z,8.03
2023-01-17T17:33:04.859Z,7.98
2023-01-17T17:35:35.207Z,8.06
2023-01-17T17:38:02.381Z,8.20
2023-01-17T17:40:29.409Z,10.36
2023-01-17T17:42:57.247Z,8.99
2023-01-17T17:45:24.339Z,8.56
2023-01-17T17:47:51.594Z,8.50
2023-01-17T17:50:19.409Z,8.50
2023-01-17T17:52:49.123Z,8.44
2023-01-17T17:55:16.750Z,8.36
2023-01-17T17:57:43.908Z,8.61
2023-01-17T18:00:11.980Z,8.57
2023-01-17T18:02:39.214Z,8.66
2023-01-17T18:05:06.966Z,8.58
2023-01-17T18:07:34.069Z,8.57
2023-01-17T18:10:01.537Z,8.33
2023-01-17T18:12:28.723Z,8.28
2023-01-17T18:14:55.938Z,8.28
2023-01-17T18:17:23.010Z,8.35
2023-01-17T18:19:50.288Z,8.26
2023-01-17T18:22:17.391Z,8.34
2023-01-17T18:24:44.661Z,8.24
2023-01-17T18:27:12.105Z,8.31
2023-01-17T18:29:39.257Z,8.38
2023-01-17T18:32:06.706Z,8.36
2023-01-17T18:34:33.868Z,8.31
2023-01-17T18:37:01.184Z,8.71
2023-01-17T18:39:29.832Z,8.66
2023-01-17T18:41:57.793Z,8.54
2023-01-17T18:44:25.526Z,8.58
2023-01-17T18:46:53.963Z,8.74
2023-01-17T18:49:21.784Z,8.75
2023-01-17T18:51:49.717Z,8.73
2023-01-17T18:54:18.647Z,8.68
2023-01-17T18:56:45.917Z,8.76
2023-01-17T18:59:14.356Z,8.84
2023-01-17T19:01:41.873Z,8.70
2023-01-17T19:04:10.190Z,8.78
2023-01-17T19:06:40.394Z,9.01
2023-01-17T19:09:08.989Z,9.03
2023-01-17T19:11:36.476Z,8.92
2023-01-17T19:14:04.238Z,8.82
2023-01-17T19:16:34.845Z,8.85
2023-01-17T19:19:05.434Z,8.95
2023-01-17T19:21:33.304Z,8.97
2023-01-17T19:24:00.581Z,8.78
2023-01-17T19:26:28.398Z,8.85
2023-01-17T19:28:57.650Z,9.03
2023-01-17T19:31:27.604Z,9.04
2023-01-17T19:33:56.771Z,8.98
2023-01-17T19:36:31.253Z,9.09
2023-01-17T19:39:04.882Z,9.22
2023-01-17T19:41:35.137Z,9.12
2023-01-17T19:44:05.288Z,9.13
2023-01-17T19:46:33.359Z,9.23
2023-01-17T19:49:02.444Z,9.37
2023-01-17T19:51:30.061Z,9.37
2023-01-17T19:53:58.215Z,9.43
2023-01-17T19:56:26.462Z,9.51
2023-01-17T19:58:54.225Z,9.74
2023-01-17T20:01:25.058Z,9.95
2023-01-17T20:03:52.561Z,9.80
2023-01-17T20:06:24.927Z,9.87
2023-01-17T20:08:52.110Z,9.91
2023-01-17T20:11:22.177Z,9.64
2023-01-17T20:13:52.439Z,9.46
2023-01-17T20:16:20.709Z,9.83
2023-01-17T20:18:47.864Z,9.83
2023-01-17T20:21:18.290Z,9.93
2023-01-17T20:23:47.194Z,9.86
2023-01-17T20:26:20.780Z,9.94
2023-01-17T20:28:50.065Z,10.27
2023-01-17T20:31:20.314Z,10.07
2023-01-17T20:33:48.695Z,9.92
2023-01-17T20:36:17.857Z,9.89
2023-01-17T20:38:45.737Z,10.10
2023-01-17T20:41:16.741Z,9.77
2023-01-17T20:43:45.673Z,9.71
2023-01-17T20:46:13.852Z,9.67
2023-01-17T20:48:52.682Z,9.84
2023-01-17T20:51:21.154Z,9.72
2023-01-17T20:53:53.613Z,9.78
2023-01-17T20:56:20.979Z,9.90
2023-01-17T20:58:49.570Z,10.06
2023-01-17T21:01:19.359Z,9.46
2023-01-17T21:03:49.320Z,9.42
2023-01-17T21:06:17.496Z,9.60
2023-01-17T21:08:46.316Z,9.97
2023-01-17T21:11:15.684Z,9.71
2023-01-17T21:13:43.755Z,9.61
2023-01-17T21:16:17.509Z,9.59
2023-01-17T21:18:49.862Z,10.05
2023-01-17T21:21:20.541Z,9.74
2023-01-17T21:23:50.022Z,9.75
2023-01-17T21:26:18.807Z,9.92
2023-01-17T21:28:47.300Z,10.14
2023-01-17T21:31:22.882Z,9.83
2023-01-17T21:33:51.042Z,9.82
2023-01-17T21:36:19.810Z,9.94
2023-01-17T21:38:48.490Z,10.24
2023-01-17T21:41:15.882Z,10.03
2023-01-17T21:43:43.519Z,10.09
2023-01-17T21:46:12.040Z,10.07
2023-01-17T21:48:41.675Z,10.34
2023-01-17T21:51:13.486Z,10.19
2023-01-17T21:53:43.420Z,10.16
2023-01-17T21:56:14.142Z,10.21
2023-01-17T21:58:44.277Z,10.40
2023-01-17T22:01:17.909Z,10.28
2023-01-17T22:03:57.677Z,10.22
2023-01-17T22:06:34.967Z,10.22
2023-01-17T22:09:03.960Z,10.42
2023-01-17T22:11:36.326Z,10.32
2023-01-17T22:14:04.560Z,10.34
2023-01-17T22:16:32.175Z,10.44
2023-01-17T22:18:59.529Z,10.63
2023-01-17T22:21:28.425Z,10.50
2023-01-17T22:23:58.026Z,10.48
2023-01-17T22:26:28.174Z,10.41
2023-01-17T22:28:55.914Z,10.79
2023-01-17T22:31:26.056Z,10.45
2023-01-17T22:34:02.101Z,10.40
2023-01-17T22:36:31.991Z,10.25
2023-01-17T22:38:59.584Z,10.30
2023-01-17T22:41:29.398Z,10.13
2023-01-17T22:43:59.399Z,10.00
2023-01-17T22:46:28.959Z,9.93
2023-01-17T22:48:57.337Z,10.13
2023-01-17T22:51:26.987Z,10.03
2023-01-17T22:53:56.596Z,9.99
2023-01-17T22:56:27.130Z,9.97
2023-01-17T22:58:54.476Z,10.19
2023-01-17T23:01:24.460Z,10.11
2023-01-17T23:03:54.014Z,10.09
2023-01-17T23:06:24.645Z,10.05
2023-01-17T23:08:54.759Z,10.33
2023-01-17T23:11:38.977Z,10.21
2023-01-17T23:14:15.162Z,10.12
2023-01-17T23:16:46.454Z,9.96
2023-01-17T23:19:13.865Z,10.06
2023-01-17T23:21:41.118Z,9.95
2023-01-17T23:24:08.462Z,9.88
2023-01-17T23:26:36.811Z,9.76
2023-01-17T23:29:04.149Z,10.05
2023-01-17T23:31:31.387Z,9.85
2023-01-17T23:33:58.654Z,9.71
2023-01-17T23:36:26.114Z,9.75
2023-01-17T23:38:53.558Z,9.95
2023-01-17T23:41:20.890Z,9.88
2023-01-17T23:43:56.327Z,9.83
2023-01-17T23:46:25.477Z,9.78
2023-01-17T23:48:52.903Z,10.16
2023-01-17T23:51:20.225Z,9.99
2023-01-17T23:53:47.760Z,9.86
2023-01-17T23:56:23.566Z,9.88
2023-01-17T23:58:50.969Z,9.97
